Time;durP1;ratioP1;P1;durP2;ratioP2;P2;SDS_P1;SDS_P2;PMS_P1;PMS_P2;Temp;Humidity;BMP_temperature;BMP_pressure;BME280_temperature;BME280_humidity;BME280_pressure;Samples;Min_cycle;Max_cycle;Signal;HPM_P1;HPM_P2
2021/11/07 00:05:05;;;;;;;38.10;14.60;;;0.60;99.90;;;;;;5004726;28;20468;-63
2021/11/07 00:07:46;;;;;;;55.97;14.20;;;0.60;99.90;;;;;;5002237;28;20425;-65
2021/11/07 00:10:18;;;;;;;73.80;13.10;;;0.50;99.90;;;;;;4999173;28;20445;-69
2021/11/07 00:12:47;;;;;;;50.27;13.93;;;0.40;99.90;;;;;;4999146;28;20444;-59
2021/11/07 00:15:15;;;;;;;66.53;13.80;;;0.30;99.90;;;;;;5000718;28;20464;-59
2021/11/07 00:17:47;;;;;;;62.10;14.53;;;0.30;99.90;;;;;;4998003;28;20920;-60
2021/11/07 00:20:21;;;;;;;83.53;14.17;;;0.30;99.90;;;;;;5003906;28;20431;-60
2021/11/07 00:25:22;;;;;;;62.60;13.90;;;0.30;99.90;;;;;;5003661;28;20457;-59
2021/11/07 00:27:55;;;;;;;126.13;16.43;;;0.30;99.90;;;;;;5000682;28;20660;-61
2021/11/07 00:33:08;;;;;;;76.87;14.00;;;0.30;99.90;;;;;;5005242;28;20496;-57
2021/11/07 00:38:23;;;;;;;42.50;14.33;;;0.30;99.90;;;;;;5004738;28;20453;-59
2021/11/07 00:43:41;;;;;;;61.57;13.40;;;0.30;99.90;;;;;;5004884;28;20546;-58
2021/11/07 00:46:18;;;;;;;82.50;14.43;;;0.30;99.90;;;;;;5008628;28;20421;-57
2021/11/07 00:48:56;;;;;;;59.10;14.53;;;0.30;99.90;;;;;;5005657;28;20439;-57
2021/11/07 00:54:25;;;;;;;80.80;13.90;;;0.30;99.90;;;;;;5004154;28;20449;-56
2021/11/07 00:56:54;;;;;;;136.93;14.10;;;0.30;99.90;;;;;;5005493;28;20448;-56
2021/11/07 01:02:15;;;;;;;168.97;15.67;;;0.20;99.90;;;;;;5006638;28;20560;-57
2021/11/07 01:04:45;;;;;;;65.03;13.30;;;0.10;99.90;;;;;;5004094;28;20437;-56
2021/11/07 01:07:11;;;;;;;51.07;13.10;;;0.00;99.90;;;;;;5006375;28;20433;-57
2021/11/07 01:09:36;;;;;;;99.70;14.80;;;0.10;99.90;;;;;;5005956;28;20437;-58
2021/11/07 01:12:02;;;;;;;26.27;13.30;;;0.00;99.90;;;;;;5005800;28;20299;-57
2021/11/07 01:14:28;;;;;;;25.10;12.30;;;0.00;99.90;;;;;;5006250;28;20449;-57
2021/11/07 01:16:54;;;;;;;27.30;11.33;;;0.10;99.90;;;;;;5006212;28;20187;-58
2021/11/07 01:19:19;;;;;;;22.47;11.93;;;0.10;99.90;;;;;;5007221;28;20228;-58
2021/11/07 01:21:46;;;;;;;33.97;13.10;;;0.20;99.90;;;;;;5006257;28;20225;-58
2021/11/07 01:24:21;;;;;;;31.93;13.07;;;0.20;99.90;;;;;;5007042;28;20634;-58
2021/11/07 01:26:51;;;;;;;33.17;12.53;;;0.20;99.90;;;;;;5005572;28;20447;-57
2021/11/07 01:29:23;;;;;;;28.20;12.80;;;0.20;99.90;;;;;;5005098;28;20433;-56
2021/11/07 01:31:50;;;;;;;48.40;14.53;;;0.20;99.90;;;;;;5004876;28;20484;-57
2021/11/07 01:34:36;;;;;;;37.07;14.10;;;0.20;99.90;;;;;;5005812;28;20571;-57
2021/11/07 01:37:15;;;;;;;48.37;14.27;;;0.20;99.90;;;;;;5006269;28;20421;-57
2021/11/07 01:42:15;;;;;;;36.50;15.00;;;0.30;99.90;;;;;;5007258;28;20435;-58
2021/11/07 01:44:47;;;;;;;29.17;12.53;;;0.30;99.90;;;;;;5006470;28;21032;-57
2021/11/07 01:47:14;;;;;;;20.80;11.20;;;0.30;99.90;;;;;;5007764;28;20418;-58
2021/11/07 01:49:42;;;;;;;22.97;11.20;;;0.30;99.90;;;;;;5006057;28;21164;-58
2021/11/07 01:52:09;;;;;;;26.03;12.77;;;0.30;99.90;;;;;;5010052;28;20822;-59
2021/11/07 01:57:21;;;;;;;21.27;11.50;;;0.20;99.90;;;;;;5012084;28;20464;-57
2021/11/07 01:59:50;;;;;;;23.33;11.73;;;0.20;99.90;;;;;;5002920;28;20471;-58
2021/11/07 02:02:17;;;;;;;28.13;10.83;;;0.20;99.90;;;;;;5007989;28;20978;-57
2021/11/07 02:04:44;;;;;;;22.70;11.53;;;0.20;99.90;;;;;;5009974;28;20527;-58
2021/11/07 02:07:11;;;;;;;19.70;11.23;;;0.10;99.90;;;;;;5009837;28;20921;-58
2021/11/07 02:09:37;;;;;;;26.30;11.50;;;0.20;99.90;;;;;;5007053;28;20431;-60
2021/11/07 02:12:05;;;;;;;22.77;12.67;;;0.20;99.90;;;;;;5012259;28;20449;-59
2021/11/07 02:14:32;;;;;;;24.23;11.93;;;0.20;99.90;;;;;;5007661;28;20464;-58
2021/11/07 02:17:01;;;;;;;30.03;14.30;;;0.30;99.90;;;;;;5007615;28;20424;-58
2021/11/07 02:19:27;;;;;;;24.77;11.63;;;0.30;99.90;;;;;;5006053;28;20429;-55
2021/11/07 02:21:53;;;;;;;24.37;12.67;;;0.30;99.90;;;;;;5007134;28;20426;-56
2021/11/07 02:24:20;;;;;;;27.97;12.30;;;0.30;99.90;;;;;;5010611;28;20444;-58
2021/11/07 02:26:52;;;;;;;23.90;11.90;;;0.30;99.90;;;;;;5009609;28;20182;-57
2021/11/07 02:29:19;;;;;;;28.83;12.97;;;0.20;99.90;;;;;;5008469;28;20427;-57
2021/11/07 02:31:45;;;;;;;28.67;13.83;;;0.20;99.90;;;;;;5007742;28;20601;-55
2021/11/07 02:34:10;;;;;;;25.63;11.60;;;0.20;99.90;;;;;;5010698;28;20551;-57
2021/11/07 02:36:36;;;;;;;23.10;11.73;;;0.30;99.90;;;;;;5010149;28;20175;-56
2021/11/07 02:39:03;;;;;;;23.80;11.60;;;0.30;99.90;;;;;;5009597;28;20758;-53
2021/11/07 02:41:28;;;;;;;24.10;10.90;;;0.30;99.90;;;;;;5004129;28;20671;-57
2021/11/07 02:43:55;;;;;;;24.77;11.70;;;0.30;99.90;;;;;;5005463;28;20528;-55
2021/11/07 02:46:21;;;;;;;23.37;12.27;;;0.30;99.90;;;;;;5009105;28;20187;-55
2021/11/07 02:48:55;;;;;;;25.00;12.30;;;0.40;99.90;;;;;;5004739;28;20982;-56
2021/11/07 02:51:33;;;;;;;27.43;13.50;;;0.40;99.90;;;;;;5007292;28;20456;-56
2021/11/07 02:54:00;;;;;;;26.13;12.00;;;0.40;99.90;;;;;;5009486;28;20444;-54
2021/11/07 02:56:26;;;;;;;31.63;12.97;;;0.40;99.90;;;;;;5005921;28;20580;-56
2021/11/07 02:58:53;;;;;;;38.03;12.93;;;0.40;99.90;;;;;;5008071;28;20577;-55
2021/11/07 03:01:22;;;;;;;28.73;13.10;;;0.40;99.90;;;;;;5005370;28;20425;-57
2021/11/07 03:03:58;;;;;;;26.73;12.93;;;0.40;99.90;;;;;;5007031;28;20924;-56
2021/11/07 03:06:24;;;;;;;35.13;13.47;;;0.40;99.90;;;;;;5005850;28;20429;-56
2021/11/07 03:08:51;;;;;;;31.50;14.57;;;0.40;99.90;;;;;;5007505;28;20444;-59
2021/11/07 03:11:18;;;;;;;26.90;12.20;;;0.40;99.90;;;;;;5006882;28;20205;-56
2021/11/07 03:13:45;;;;;;;30.60;13.33;;;0.40;99.90;;;;;;5003926;28;20464;-58
2021/11/07 03:16:15;;;;;;;28.23;13.40;;;0.40;99.90;;;;;;5006058;28;21112;-54
2021/11/07 03:18:40;;;;;;;30.73;13.43;;;0.30;99.90;;;;;;5007347;28;20429;-57
2021/11/07 03:21:11;;;;;;;36.33;14.53;;;0.30;99.90;;;;;;5006562;28;20463;-60
2021/11/07 03:23:43;;;;;;;29.77;13.23;;;0.30;99.90;;;;;;5005286;28;20811;-59
2021/11/07 03:26:13;;;;;;;35.27;15.00;;;0.30;99.90;;;;;;5005756;28;20448;-58
2021/11/07 03:28:43;;;;;;;39.43;13.67;;;0.20;99.90;;;;;;5006005;28;20425;-54
2021/11/07 03:31:25;;;;;;;32.23;13.53;;;0.30;99.90;;;;;;5006171;28;20456;-59
2021/11/07 03:33:55;;;;;;;35.70;14.70;;;0.30;99.90;;;;;;5007381;28;20511;-57
2021/11/07 03:36:21;;;;;;;33.60;14.57;;;0.40;99.90;;;;;;5008016;28;20461;-58
2021/11/07 03:38:49;;;;;;;35.90;15.23;;;0.40;99.90;;;;;;5006557;28;20437;-55
2021/11/07 03:41:16;;;;;;;37.80;14.60;;;0.50;99.90;;;;;;5006235;28;20440;-58
2021/11/07 03:43:42;;;;;;;31.20;14.00;;;0.50;99.90;;;;;;5006731;28;20451;-58
2021/11/07 03:46:09;;;;;;;36.67;14.87;;;0.50;99.90;;;;;;5006996;28;20649;-57
2021/11/07 03:48:35;;;;;;;36.57;14.00;;;0.50;99.90;;;;;;5006792;28;21395;-56
2021/11/07 03:51:02;;;;;;;38.80;15.27;;;0.60;99.90;;;;;;5005463;28;20468;-57
2021/11/07 03:53:28;;;;;;;36.00;14.03;;;0.60;99.90;;;;;;5007377;28;20361;-59
2021/11/07 03:55:54;;;;;;;39.53;15.50;;;0.60;99.90;;;;;;5006847;28;20467;-58
2021/11/07 03:58:20;;;;;;;44.47;15.80;;;0.60;99.90;;;;;;5005663;28;20461;-59
2021/11/07 04:00:46;;;;;;;36.77;14.67;;;0.50;99.90;;;;;;5006568;28;20507;-57
2021/11/07 04:03:12;;;;;;;38.40;16.00;;;0.50;99.90;;;;;;5006425;28;20434;-55
2021/11/07 04:05:38;;;;;;;38.13;15.20;;;0.50;99.90;;;;;;5004291;28;21017;-58
2021/11/07 04:08:05;;;;;;;36.50;13.60;;;0.60;99.90;;;;;;5006631;28;20293;-53
2021/11/07 04:10:33;;;;;;;43.87;16.10;;;0.60;99.90;;;;;;5007278;28;20484;-57
2021/11/07 04:12:58;;;;;;;37.57;17.03;;;0.60;99.90;;;;;;5006120;28;20476;-59
2021/11/07 04:15:25;;;;;;;38.87;15.07;;;0.60;99.90;;;;;;5004451;28;20468;-58
2021/11/07 04:17:51;;;;;;;38.30;15.10;;;0.70;99.90;;;;;;5005073;28;20177;-57
2021/11/07 04:20:18;;;;;;;38.47;15.30;;;0.70;99.90;;;;;;5006421;28;20425;-58
2021/11/07 04:22:43;;;;;;;41.07;16.33;;;0.70;99.90;;;;;;5003366;28;20445;-57
2021/11/07 04:25:09;;;;;;;37.87;15.07;;;0.80;99.90;;;;;;5005083;28;20973;-57
2021/11/07 04:27:35;;;;;;;36.10;13.90;;;0.80;99.90;;;;;;5004078;28;20212;-58
2021/11/07 04:30:01;;;;;;;33.90;15.03;;;0.80;99.90;;;;;;5007065;28;21060;-58
2021/11/07 04:32:27;;;;;;;39.30;14.97;;;0.80;99.90;;;;;;5005800;28;20442;-58
2021/11/07 04:34:53;;;;;;;41.53;14.20;;;0.90;99.90;;;;;;5006359;28;20208;-58
2021/11/07 04:37:18;;;;;;;39.80;15.17;;;0.90;99.90;;;;;;5006301;28;20175;-58
2021/11/07 04:39:45;;;;;;;40.30;15.47;;;0.90;99.90;;;;;;5005860;28;20174;-56
2021/11/07 04:42:11;;;;;;;50.50;15.73;;;0.90;99.90;;;;;;5005540;28;20236;-56
2021/11/07 04:44:37;;;;;;;42.50;16.23;;;0.80;99.90;;;;;;5004907;28;20520;-54
2021/11/07 04:47:04;;;;;;;43.13;15.50;;;0.80;99.90;;;;;;5002827;28;20528;-56
2021/11/07 04:49:30;;;;;;;43.03;16.23;;;0.80;99.90;;;;;;5003808;28;20658;-56
2021/11/07 04:51:56;;;;;;;47.40;16.30;;;0.80;99.90;;;;;;5001872;28;20906;-57
2021/11/07 04:54:22;;;;;;;43.67;18.60;;;0.80;99.90;;;;;;5006203;28;20480;-56
2021/11/07 04:56:48;;;;;;;43.83;16.77;;;0.80;99.90;;;;;;5006012;28;20512;-57
2021/11/07 04:59:15;;;;;;;45.30;15.97;;;0.80;99.90;;;;;;5005401;28;20563;-55
2021/11/07 05:01:41;;;;;;;43.03;15.60;;;0.80;99.90;;;;;;5004956;28;20175;-57
2021/11/07 05:04:09;;;;;;;38.70;16.47;;;0.80;99.90;;;;;;5005748;28;20442;-59
2021/11/07 05:06:36;;;;;;;57.27;17.40;;;0.80;99.90;;;;;;5004536;28;20190;-57
2021/11/07 05:09:03;;;;;;;47.50;17.20;;;0.90;99.90;;;;;;5006835;28;20495;-55
2021/11/07 05:11:29;;;;;;;41.73;16.00;;;0.90;99.90;;;;;;5003575;28;21177;-56
2021/11/07 05:13:54;;;;;;;46.07;16.97;;;0.90;99.90;;;;;;5005322;28;20461;-56
2021/11/07 05:16:20;;;;;;;41.63;15.60;;;0.90;99.90;;;;;;5004297;28;20428;-57
2021/11/07 05:18:46;;;;;;;46.27;15.63;;;0.90;99.90;;;;;;5005192;28;20187;-57
2021/11/07 05:21:11;;;;;;;43.83;16.37;;;0.90;99.90;;;;;;5006806;28;20209;-58
2021/11/07 05:23:38;;;;;;;38.87;15.33;;;0.90;99.90;;;;;;5009728;28;20202;-58
2021/11/07 05:26:04;;;;;;;45.10;16.10;;;0.90;99.90;;;;;;5027301;28;20298;-59
2021/11/07 05:28:29;;;;;;;41.60;15.70;;;1.00;99.90;;;;;;5011910;28;20993;-58
2021/11/07 05:30:55;;;;;;;41.10;16.07;;;1.00;99.90;;;;;;5008488;28;20465;-58
2021/11/07 05:33:22;;;;;;;42.33;15.87;;;1.00;99.90;;;;;;5008567;28;20179;-57
2021/11/07 05:35:48;;;;;;;35.90;15.00;;;1.10;99.90;;;;;;5008967;28;20597;-57
2021/11/07 05:38:16;;;;;;;43.87;17.40;;;1.10;99.90;;;;;;5009412;28;21024;-57
2021/11/07 05:40:43;;;;;;;35.20;14.90;;;1.10;99.90;;;;;;5006945;28;20179;-57
2021/11/07 05:43:08;;;;;;;33.37;14.80;;;1.20;99.90;;;;;;5009398;28;20865;-56
2021/11/07 05:45:34;;;;;;;45.90;18.30;;;1.20;99.90;;;;;;5009498;28;20447;-57
2021/11/07 05:48:00;;;;;;;41.00;14.97;;;1.30;99.90;;;;;;5009452;28;20179;-58
2021/11/07 05:50:26;;;;;;;39.40;16.83;;;1.30;99.90;;;;;;5008512;28;20203;-57
2021/11/07 05:52:52;;;;;;;40.87;15.73;;;1.40;99.90;;;;;;5009297;28;20185;-57
2021/11/07 05:55:18;;;;;;;37.57;15.53;;;1.40;99.90;;;;;;5009300;28;20228;-57
2021/11/07 05:57:44;;;;;;;35.13;15.63;;;1.40;99.90;;;;;;5008435;28;20503;-54
2021/11/07 06:00:12;;;;;;;36.80;15.80;;;1.40;99.90;;;;;;5007924;28;21266;-55
2021/11/07 06:02:39;;;;;;;40.23;14.43;;;1.50;99.90;;;;;;5009064;28;20437;-56
2021/11/07 06:05:06;;;;;;;34.40;13.90;;;1.50;99.90;;;;;;5010559;28;20447;-57
2021/11/07 06:07:32;;;;;;;32.30;13.67;;;1.50;99.90;;;;;;5007127;28;20434;-56
2021/11/07 06:09:59;;;;;;;34.70;13.50;;;1.50;99.90;;;;;;5007863;28;20493;-55
2021/11/07 06:12:25;;;;;;;32.37;14.50;;;1.60;99.90;;;;;;5007468;28;20425;-53
2021/11/07 06:14:50;;;;;;;31.20;13.03;;;1.60;99.90;;;;;;5005533;28;20462;-55
2021/11/07 06:17:16;;;;;;;34.13;15.50;;;1.60;99.90;;;;;;5007936;28;20509;-56
2021/11/07 06:19:42;;;;;;;30.07;14.03;;;1.70;99.90;;;;;;5005437;28;20184;-54
2021/11/07 06:22:08;;;;;;;31.33;13.60;;;1.70;99.90;;;;;;5007475;28;20831;-56
2021/11/07 06:24:34;;;;;;;30.20;12.77;;;1.70;99.90;;;;;;5001586;28;20198;-55
2021/11/07 06:27:01;;;;;;;29.30;13.57;;;1.70;99.90;;;;;;5006722;28;20429;-57
2021/11/07 06:29:28;;;;;;;29.50;14.83;;;1.70;99.90;;;;;;5008128;28;20428;-57
2021/11/07 06:31:55;;;;;;;33.63;15.60;;;1.70;99.90;;;;;;5005876;28;20459;-56
2021/11/07 06:34:22;;;;;;;33.47;13.73;;;1.70;99.90;;;;;;5006356;28;20455;-54
2021/11/07 06:36:48;;;;;;;31.83;14.10;;;1.80;99.90;;;;;;5006744;28;20431;-53
2021/11/07 06:39:15;;;;;;;31.77;14.27;;;1.80;99.90;;;;;;5007710;28;20539;-53
2021/11/07 06:41:42;;;;;;;31.43;12.90;;;1.80;99.90;;;;;;5006609;28;20443;-56
2021/11/07 06:44:08;;;;;;;31.27;14.03;;;1.90;99.90;;;;;;5007362;28;20471;-56
2021/11/07 06:46:35;;;;;;;30.27;13.90;;;1.90;99.90;;;;;;5006838;28;20952;-55
2021/11/07 06:49:04;;;;;;;30.17;12.80;;;1.90;99.90;;;;;;5006554;28;20190;-56
2021/11/07 06:51:30;;;;;;;28.60;12.13;;;1.90;99.90;;;;;;5002479;28;20460;-56
2021/11/07 06:53:55;;;;;;;32.97;13.30;;;1.90;99.90;;;;;;5004983;28;20457;-54
2021/11/07 06:56:21;;;;;;;31.03;12.97;;;1.90;99.90;;;;;;5006630;28;20612;-54
2021/11/07 06:58:47;;;;;;;31.53;12.37;;;1.90;99.90;;;;;;5005105;28;20185;-56
2021/11/07 07:01:13;;;;;;;29.70;13.40;;;1.90;99.90;;;;;;5004292;28;20212;-55
2021/11/07 07:03:38;;;;;;;25.00;12.30;;;1.90;99.90;;;;;;5008093;28;20215;-59
2021/11/07 07:06:04;;;;;;;28.37;12.13;;;1.90;99.90;;;;;;5001647;28;20211;-57
2021/11/07 07:08:41;;;;;;;30.60;13.57;;;1.90;99.90;;;;;;5003996;28;20190;-55
2021/11/07 07:11:12;;;;;;;34.30;14.63;;;1.90;99.90;;;;;;5005699;28;20458;-55
2021/11/07 07:21:46;;;;;;;27.80;13.00;;;2.10;99.90;;;;;;5008337;28;21566;-56
2021/11/07 07:32:21;;;;;;;27.30;12.53;;;2.10;99.90;;;;;;5006353;28;20461;-58
2021/11/07 07:34:50;;;;;;;25.00;11.80;;;2.20;99.90;;;;;;5006946;28;21112;-56
2021/11/07 07:37:16;;;;;;;24.57;11.63;;;2.20;99.90;;;;;;5005461;28;20427;-56
2021/11/07 07:39:41;;;;;;;27.77;13.30;;;2.20;99.90;;;;;;5007331;28;20902;-56
2021/11/07 07:42:08;;;;;;;26.57;12.07;;;2.20;99.90;;;;;;5005993;28;20183;-54
2021/11/07 07:44:34;;;;;;;28.87;14.00;;;2.30;99.90;;;;;;5007395;28;20196;-59
2021/11/07 07:47:00;;;;;;;30.73;13.60;;;2.30;99.90;;;;;;5005851;28;20426;-58
2021/11/07 07:49:26;;;;;;;29.57;12.87;;;2.40;99.90;;;;;;5007463;28;20423;-55
2021/11/07 07:51:54;;;;;;;27.97;13.80;;;2.40;99.90;;;;;;5005493;28;20216;-55
2021/11/07 07:54:20;;;;;;;29.27;12.87;;;2.40;99.90;;;;;;5004991;28;20877;-57
2021/11/07 07:56:46;;;;;;;29.77;13.47;;;2.40;99.90;;;;;;5002847;28;20429;-58
2021/11/07 07:59:12;;;;;;;33.57;15.30;;;2.40;99.90;;;;;;5005465;28;20996;-59
2021/11/07 08:01:37;;;;;;;27.23;12.93;;;2.50;99.90;;;;;;5002600;28;20177;-60
2021/11/07 08:04:04;;;;;;;28.97;12.77;;;2.50;99.90;;;;;;5005264;28;20212;-60
2021/11/07 08:06:30;;;;;;;25.90;12.03;;;2.60;99.90;;;;;;5004732;28;20176;-60
2021/11/07 08:08:57;;;;;;;27.63;13.10;;;2.60;99.90;;;;;;5001699;28;20527;-58
2021/11/07 08:11:23;;;;;;;23.40;12.47;;;2.70;99.90;;;;;;4994900;28;20524;-59
2021/11/07 08:13:50;;;;;;;21.50;11.40;;;2.70;99.90;;;;;;5002193;28;20478;-58
2021/11/07 08:16:17;;;;;;;26.90;12.93;;;2.80;99.90;;;;;;5003732;28;20518;-60
2021/11/07 08:18:43;;;;;;;24.90;11.90;;;2.90;99.90;;;;;;5002891;28;21353;-60
2021/11/07 08:21:09;;;;;;;28.87;12.70;;;2.90;99.90;;;;;;5002184;28;20431;-59
2021/11/07 08:23:35;;;;;;;24.60;12.43;;;2.90;99.90;;;;;;5004600;28;20510;-60
2021/11/07 08:26:02;;;;;;;25.97;12.17;;;3.00;99.90;;;;;;5004477;28;20996;-60
2021/11/07 08:28:30;;;;;;;27.93;13.27;;;3.00;99.90;;;;;;5000118;28;20226;-59
2021/11/07 08:31:04;;;;;;;27.17;12.57;;;3.00;99.90;;;;;;4999659;28;20457;-60
2021/11/07 08:33:30;;;;;;;24.67;12.50;;;3.00;99.90;;;;;;4999068;28;20439;-60
2021/11/07 08:36:01;;;;;;;27.00;12.80;;;3.10;99.90;;;;;;5000563;28;20553;-61
2021/11/07 08:38:32;;;;;;;26.20;12.60;;;3.00;99.90;;;;;;5002474;28;20211;-60
2021/11/07 08:40:59;;;;;;;26.80;12.87;;;3.10;99.90;;;;;;4995372;28;20439;-62
2021/11/07 09:02:33;;;;;;;26.90;12.70;;;3.20;99.90;;;;;;5000041;28;20477;-60
2021/11/07 09:05:06;;;;;;;27.20;13.33;;;3.20;99.90;;;;;;4996793;28;20454;-59
2021/11/07 09:10:00;;;;;;;26.10;12.47;;;3.20;99.90;;;;;;4999829;28;20463;-60
2021/11/07 09:12:27;;;;;;;25.17;12.50;;;3.20;99.90;;;;;;5003180;28;20529;-59
2021/11/07 09:14:53;;;;;;;26.50;13.03;;;3.20;99.90;;;;;;5001555;28;20471;-59
2021/11/07 09:17:21;;;;;;;33.27;14.60;;;3.20;99.90;;;;;;5002824;28;20612;-60
2021/11/07 09:19:49;;;;;;;28.23;13.20;;;3.20;99.90;;;;;;4998522;28;20430;-60
2021/11/07 09:25:02;;;;;;;20.93;10.07;;;3.20;99.90;;;;;;5005278;28;20504;-60
2021/11/07 09:32:54;;;;;;;30.60;13.60;;;3.10;99.90;;;;;;5002719;28;20509;-59
2021/11/07 09:35:27;;;;;;;28.13;13.43;;;3.20;99.90;;;;;;5001839;28;20554;-60
2021/11/07 09:37:58;;;;;;;26.43;13.80;;;3.20;99.90;;;;;;4998276;28;20494;-59
2021/11/07 09:40:26;;;;;;;30.70;13.73;;;3.20;99.90;;;;;;4996850;28;20431;-59
2021/11/07 09:43:07;;;;;;;23.47;12.63;;;3.20;99.90;;;;;;5001949;28;20522;-61
2021/11/07 09:48:26;;;;;;;24.93;13.23;;;3.30;99.90;;;;;;5000717;28;20497;-59
2021/11/07 09:50:53;;;;;;;30.10;13.20;;;3.40;99.90;;;;;;5000931;28;21016;-62
2021/11/07 09:53:19;;;;;;;29.33;13.83;;;3.40;99.90;;;;;;5004670;28;20450;-59
2021/11/07 09:55:46;;;;;;;28.00;12.90;;;3.50;99.90;;;;;;5003539;28;21052;-61
2021/11/07 09:58:13;;;;;;;28.30;12.90;;;3.50;99.90;;;;;;5001336;28;20946;-59
2021/11/07 10:00:46;;;;;;;27.83;13.43;;;3.60;99.90;;;;;;4995835;28;20443;-60
2021/11/07 10:03:16;;;;;;;28.37;13.63;;;3.60;99.90;;;;;;5002699;28;20446;-59
2021/11/07 10:05:45;;;;;;;23.10;12.10;;;3.70;99.90;;;;;;5001922;28;20811;-59
2021/11/07 10:08:12;;;;;;;24.30;12.50;;;3.70;99.90;;;;;;5001899;28;20439;-59
2021/11/07 10:13:36;;;;;;;24.73;12.20;;;3.90;99.90;;;;;;4988534;28;20482;-60
2021/11/07 10:16:09;;;;;;;21.47;11.70;;;4.00;99.90;;;;;;5005324;28;20454;-59
2021/11/07 10:21:44;;;;;;;21.57;11.13;;;4.00;99.90;;;;;;5000843;28;21371;-60
2021/11/07 10:24:17;;;;;;;19.77;10.93;;;4.10;99.90;;;;;;5004111;28;20460;-55
2021/11/07 10:26:46;;;;;;;21.80;11.10;;;4.10;99.90;;;;;;5007279;28;21015;-61
2021/11/07 10:29:29;;;;;;;19.70;10.33;;;4.10;99.90;;;;;;5004698;28;20436;-59
2021/11/07 10:32:10;;;;;;;18.43;10.80;;;4.20;99.90;;;;;;5001697;28;20462;-60
2021/11/07 10:53:53;;;;;;;21.10;11.10;;;4.60;99.90;;;;;;5004433;28;20442;-59
2021/11/07 10:56:18;;;;;;;18.70;10.43;;;4.60;99.90;;;;;;5003477;28;20543;-61
2021/11/07 10:58:48;;;;;;;24.63;10.97;;;4.70;99.90;;;;;;5006775;28;20507;-61
2021/11/07 11:01:21;;;;;;;16.47;9.80;;;4.80;99.90;;;;;;5001339;28;20467;-60
2021/11/07 11:03:53;;;;;;;17.20;9.03;;;4.80;99.90;;;;;;5001655;28;20470;-60
2021/11/07 11:06:19;;;;;;;16.63;9.83;;;4.80;99.90;;;;;;5001142;28;20431;-60
2021/11/07 11:09:36;;;;;;;20.13;10.50;;;4.90;99.90;;;;;;5001778;28;20843;-60
2021/11/07 11:11:57;;;;;;;16.80;9.63;;;4.90;99.90;;;;;;4992974;28;20456;-59
2021/11/07 11:14:27;;;;;;;16.20;9.33;;;5.00;99.90;;;;;;4996569;28;20462;-60
2021/11/07 11:17:06;;;;;;;16.70;9.30;;;5.10;99.90;;;;;;4997777;28;21187;-60
2021/11/07 11:25:25;;;;;;;17.50;8.87;;;6.40;99.90;;;;;;5003153;28;21100;-60
2021/11/07 11:33:32;;;;;;;;;;;;;;;;;;;;;
2021/11/07 11:36:13;;;;;;;9.93;6.90;;;7.80;97.60;;;;;;5006664;28;20664;-55
2021/11/07 11:38:47;;;;;;;13.30;7.40;;;8.30;94.80;;;;;;5006392;28;20578;-54
2021/11/07 11:44:00;;;;;;;15.80;8.20;;;9.20;86.40;;;;;;4999168;28;21224;-56
2021/11/07 11:47:08;;;;;;;9.17;6.93;;;9.50;85.20;;;;;;5002620;28;20471;-54
2021/11/07 11:53:02;;;;;;;14.70;7.90;;;10.20;75.90;;;;;;4959219;28;20633;-60
2021/11/07 11:55:51;;;;;;;10.83;7.83;;;10.50;74.00;;;;;;4956857;28;20869;-60
2021/11/07 11:59:13;;;;;;;15.20;9.30;;;10.90;69.10;;;;;;4994405;28;20447;-61
2021/11/07 12:01:34;;;;;;;12.67;8.47;;;11.20;66.10;;;;;;4996358;28;20436;-59
2021/11/07 12:04:14;;;;;;;12.47;8.33;;;11.30;63.40;;;;;;4994041;28;20458;-61
2021/11/07 12:12:18;;;;;;;15.10;10.10;;;11.30;64.60;;;;;;4997978;28;20514;-60
2021/11/07 12:15:13;;;;;;;12.63;9.03;;;11.40;63.60;;;;;;4999754;28;20993;-61
2021/11/07 12:17:44;;;;;;;14.13;10.23;;;11.50;61.70;;;;;;4996973;28;20486;-61
2021/11/07 12:20:32;;;;;;;17.33;10.20;;;11.40;61.70;;;;;;4997625;28;20522;-61
2021/11/07 12:23:17;;;;;;;14.80;9.77;;;11.10;62.90;;;;;;5002378;28;20446;-59
2021/11/07 12:25:44;;;;;;;13.87;9.23;;;10.60;65.30;;;;;;5004448;28;20443;-61
2021/11/07 12:28:11;;;;;;;15.23;9.37;;;10.00;69.80;;;;;;4997549;28;20427;-62
2021/11/07 12:30:39;;;;;;;13.93;9.70;;;9.50;78.30;;;;;;4999453;28;20467;-59
2021/11/07 12:33:14;;;;;;;13.70;9.27;;;9.20;89.60;;;;;;5000233;28;20431;-59
2021/11/07 12:36:06;;;;;;;12.53;8.60;;;9.10;93.50;;;;;;5003181;28;20416;-60
2021/11/07 12:41:23;;;;;;;16.10;9.13;;;8.90;92.40;;;;;;5000898;28;20967;-58
2021/11/07 12:43:51;;;;;;;13.67;9.27;;;8.70;92.50;;;;;;5016168;28;20526;-59
2021/11/07 12:48:54;;;;;;;16.13;9.33;;;8.30;94.80;;;;;;5000299;28;20518;-60
2021/11/07 12:51:44;;;;;;;17.47;9.50;;;8.20;95.30;;;;;;5000737;28;20481;-58
2021/11/07 12:54:22;;;;;;;15.47;9.37;;;8.00;95.80;;;;;;4991426;28;20455;-60
2021/11/07 12:57:10;;;;;;;14.50;9.23;;;7.90;96.40;;;;;;4995780;28;20428;-61
2021/11/07 12:59:49;;;;;;;14.33;9.83;;;7.80;97.20;;;;;;5000865;28;20435;-58
2021/11/07 13:02:17;;;;;;;15.67;9.07;;;7.70;97.50;;;;;;4994144;28;20471;-60
2021/11/07 13:05:01;;;;;;;21.07;11.30;;;7.80;97.70;;;;;;4998739;28;20558;-60
2021/11/07 13:07:41;;;;;;;15.57;9.63;;;7.70;96.80;;;;;;5004251;28;20432;-61
2021/11/07 13:10:11;;;;;;;15.10;9.90;;;7.70;96.40;;;;;;5002805;28;20431;-60
2021/11/07 13:12:47;;;;;;;14.97;9.13;;;7.60;96.70;;;;;;5009406;28;20922;-62
2021/11/07 13:15:47;;;;;;;14.10;9.00;;;7.50;95.70;;;;;;5005647;28;20474;-60
2021/11/07 13:26:30;;;;;;;14.73;9.27;;;7.60;96.70;;;;;;5005281;28;20495;-61
2021/11/07 13:31:40;;;;;;;13.00;9.30;;;7.60;96.00;;;;;;5003800;28;20539;-60
2021/11/07 13:34:09;;;;;;;11.73;8.00;;;7.50;96.60;;;;;;4992471;28;20455;-60
2021/11/07 13:36:41;;;;;;;14.90;8.70;;;7.40;96.30;;;;;;4998009;28;20876;-62
2021/11/07 13:39:07;;;;;;;16.43;9.60;;;7.40;97.20;;;;;;4996562;28;20444;-60
2021/11/07 13:41:34;;;;;;;13.77;9.17;;;7.30;97.30;;;;;;4994931;28;20435;-62
2021/11/07 13:44:17;;;;;;;13.00;9.50;;;7.30;97.70;;;;;;4993509;28;20458;-60
2021/11/07 13:46:54;;;;;;;15.20;10.03;;;7.30;97.60;;;;;;5018822;28;20443;-62
2021/11/07 13:49:21;;;;;;;13.77;9.20;;;7.30;97.80;;;;;;5002812;28;20864;-62
2021/11/07 13:51:53;;;;;;;14.87;9.27;;;7.50;97.70;;;;;;5000865;28;20504;-62
2021/11/07 13:54:19;;;;;;;13.83;9.80;;;7.70;97.10;;;;;;4998035;28;20993;-61
2021/11/07 13:56:46;;;;;;;14.40;9.00;;;8.20;96.80;;;;;;5001398;28;20820;-62
2021/11/07 13:59:36;;;;;;;15.33;9.83;;;8.60;94.70;;;;;;4999543;28;20471;-63
2021/11/07 14:02:09;;;;;;;13.50;9.07;;;8.70;92.10;;;;;;4998540;28;20514;-61
2021/11/07 14:04:40;;;;;;;14.40;10.60;;;8.60;92.30;;;;;;5001246;28;20451;-62
2021/11/07 14:07:18;;;;;;;18.53;10.33;;;8.30;93.30;;;;;;5001923;28;20466;-62
2021/11/07 14:10:17;;;;;;;14.93;9.50;;;8.00;95.50;;;;;;4999621;28;20423;-61
2021/11/07 14:12:54;;;;;;;13.23;8.80;;;7.70;96.40;;;;;;4991695;28;20988;-59
2021/11/07 14:15:27;;;;;;;19.17;12.23;;;7.60;97.30;;;;;;5005122;28;20466;-60
2021/11/07 14:18:07;;;;;;;14.53;9.07;;;7.40;98.10;;;;;;5000917;28;20961;-61
2021/11/07 14:20:52;;;;;;;15.87;9.43;;;7.40;98.60;;;;;;4990981;28;20450;-59
2021/11/07 14:23:44;;;;;;;17.63;10.23;;;7.40;98.80;;;;;;4997364;28;20431;-62
2021/11/07 14:28:53;;;;;;;13.80;8.60;;;7.40;99.10;;;;;;4999992;28;20429;-59
2021/11/07 14:31:27;;;;;;;15.97;10.20;;;7.40;99.60;;;;;;4999418;28;20478;-58
2021/11/07 14:34:14;;;;;;;23.63;11.57;;;7.50;99.30;;;;;;4995905;28;21009;-59
2021/11/07 14:42:36;;;;;;;15.40;9.93;;;7.60;98.90;;;;;;5000819;28;20451;-59
2021/11/07 14:45:43;;;;;;;11.13;8.30;;;7.60;98.90;;;;;;5002626;28;20482;-59
2021/11/07 14:56:45;;;;;;;13.30;8.80;;;7.70;99.10;;;;;;4999630;28;21109;-59
2021/11/07 15:02:04;;;;;;;15.37;8.90;;;7.60;99.20;;;;;;4997413;28;20452;-59
2021/11/07 15:04:50;;;;;;;13.30;8.80;;;7.60;99.20;;;;;;5000036;28;20457;-59
2021/11/07 15:13:03;;;;;;;16.20;9.13;;;7.40;99.90;;;;;;4998211;28;20458;-59
2021/11/07 15:18:25;;;;;;;17.30;9.83;;;7.40;99.90;;;;;;4999050;28;21005;-59
2021/11/07 15:20:57;;;;;;;19.73;9.03;;;7.30;99.90;;;;;;5003477;28;20183;-59
2021/11/07 15:23:42;;;;;;;14.23;9.10;;;7.30;99.90;;;;;;4995407;28;20514;-59
2021/11/07 15:26:37;;;;;;;15.60;9.00;;;7.30;99.90;;;;;;5000339;28;20440;-61
2021/11/07 15:29:05;;;;;;;14.50;8.20;;;7.30;99.90;;;;;;5001032;28;20435;-58
2021/11/07 15:31:32;;;;;;;14.87;9.37;;;7.20;99.90;;;;;;5001473;28;20491;-59
2021/11/07 15:34:01;;;;;;;16.47;8.80;;;7.20;99.90;;;;;;5005722;28;20455;-59
2021/11/07 15:36:31;;;;;;;13.30;8.40;;;7.20;99.90;;;;;;5003003;28;20442;-59
2021/11/07 15:39:09;;;;;;;13.10;8.70;;;7.20;99.90;;;;;;5003220;28;20562;-59
2021/11/07 15:41:36;;;;;;;13.27;8.97;;;7.20;99.90;;;;;;5003036;28;20801;-59
2021/11/07 15:44:03;;;;;;;13.83;8.40;;;7.10;99.90;;;;;;5007386;28;20972;-60